Time;durP1;ratioP1;P1;durP2;ratioP2;P2;SDS_P1;SDS_P2;PMS_P1;PMS_P2;Temp;Humidity;BMP_temperature;BMP_pressure;BME280_temperature;BME280_humidity;BME280_pressure;Samples;Min_cycle;Max_cycle;Signal;HPM_P1;HPM_P2
2024/01/31 00:02:50;;;;;;;17.70;11.40;;;;;;;-4.28;100.00;99416.50;6164287;28;20217;-56
2024/01/31 00:05:52;;;;;;;18.27;11.33;;;;;;;-4.11;100.00;99428.34;6162841;28;20198;-55
2024/01/31 00:08:56;;;;;;;17.27;12.43;;;;;;;-4.16;100.00;99426.91;6168881;28;20716;-57
2024/01/31 00:11:58;;;;;;;20.67;11.60;;;;;;;-4.29;100.00;99430.44;6153430;28;20760;-57
2024/01/31 00:15:01;;;;;;;22.87;13.77;;;;;;;-4.45;100.00;99412.44;6167690;28;20569;-57
2024/01/31 00:18:03;;;;;;;17.23;12.87;;;;;;;-4.43;100.00;99413.19;6157300;28;20681;-57
2024/01/31 00:21:05;;;;;;;20.00;12.30;;;;;;;-4.29;100.00;99428.66;6164508;28;20194;-58
2024/01/31 00:24:09;;;;;;;24.90;15.33;;;;;;;-4.36;100.00;99419.63;6166426;28;20194;-59
2024/01/31 00:27:12;;;;;;;17.87;12.13;;;;;;;-4.31;100.00;99427.13;6159650;28;20289;-56
2024/01/31 00:30:14;;;;;;;26.17;14.07;;;;;;;-4.34;100.00;99420.34;6169862;28;20682;-58
2024/01/31 00:33:16;;;;;;;19.53;13.07;;;;;;;-4.35;100.00;99415.25;6160779;28;20194;-58
2024/01/31 00:36:18;;;;;;;20.80;12.87;;;;;;;-4.21;100.00;99413.38;6166889;28;20205;-58
2024/01/31 00:39:21;;;;;;;20.10;12.57;;;;;;;-4.37;100.00;99417.13;6165916;28;20884;-57
2024/01/31 00:42:23;;;;;;;24.67;14.10;;;;;;;-4.38;100.00;99413.72;6164605;28;20201;-58
2024/01/31 00:45:25;;;;;;;22.27;14.30;;;;;;;-4.43;100.00;99421.00;6165033;28;20667;-56
2024/01/31 00:48:27;;;;;;;23.23;14.73;;;;;;;-4.39;100.00;99421.59;6165864;28;20254;-57
2024/01/31 00:51:29;;;;;;;24.40;13.77;;;;;;;-4.33;100.00;99423.81;6156673;28;20186;-57
2024/01/31 00:54:31;;;;;;;28.90;15.33;;;;;;;-4.36;100.00;99419.63;6155157;28;20202;-57
2024/01/31 00:57:33;;;;;;;20.07;13.93;;;;;;;-4.39;100.00;99416.38;6167261;28;20616;-56
2024/01/31 01:00:35;;;;;;;24.73;15.67;;;;;;;-4.52;100.00;99404.22;6163661;28;20191;-57
2024/01/31 01:03:38;;;;;;;25.57;15.13;;;;;;;-4.45;100.00;99418.47;6165218;28;20213;-58
2024/01/31 01:06:40;;;;;;;24.03;13.70;;;;;;;-4.57;100.00;99397.69;6158684;28;20194;-56
2024/01/31 01:09:43;;;;;;;23.13;14.77;;;;;;;-4.52;100.00;99422.44;6160387;28;20214;-58
2024/01/31 01:12:45;;;;;;;20.90;14.87;;;;;;;-4.60;100.00;99408.28;6167519;28;20202;-57
2024/01/31 01:15:47;;;;;;;21.30;14.33;;;;;;;-4.51;100.00;99421.50;6159727;28;20315;-56
2024/01/31 01:18:49;;;;;;;25.10;15.40;;;;;;;-4.63;100.00;99396.34;6155686;28;20285;-58
2024/01/31 01:21:51;;;;;;;23.07;15.13;;;;;;;-4.56;100.00;99413.16;6158073;28;20194;-58
2024/01/31 01:24:53;;;;;;;22.07;14.27;;;;;;;-4.60;100.00;99411.72;6162842;28;20193;-57
2024/01/31 01:27:55;;;;;;;25.53;15.97;;;;;;;-4.54;100.00;99410.47;6147345;28;20268;-56
2024/01/31 01:30:58;;;;;;;27.73;17.70;;;;;;;-4.34;100.00;99409.94;6161585;28;20717;-58
2024/01/31 01:34:00;;;;;;;25.73;14.83;;;;;;;-4.58;100.00;99406.41;6156168;28;20201;-57
2024/01/31 01:37:02;;;;;;;28.43;15.27;;;;;;;-4.50;100.00;99402.34;6154966;28;20206;-59
2024/01/31 01:40:05;;;;;;;36.17;20.03;;;;;;;-4.57;100.00;99398.50;6161427;28;20700;-56
2024/01/31 01:43:17;;;;;;;30.07;18.17;;;;;;;-4.48;100.00;99397.06;6158378;28;20211;-57
2024/01/31 01:46:21;;;;;;;33.20;18.67;;;;;;;-4.32;100.00;99402.03;6163154;28;20846;-59
2024/01/31 01:49:24;;;;;;;27.70;17.97;;;;;;;-4.70;100.00;99354.28;6112231;28;1204785;-58
2024/01/31 01:52:32;;;;;;;26.40;16.40;;;;;;;-4.40;100.00;99392.16;6157190;28;20572;-59
2024/01/31 01:55:35;;;;;;;29.60;17.97;;;;;;;-4.64;100.00;99375.63;6146557;28;20237;-57
2024/01/31 01:58:38;;;;;;;31.20;18.07;;;;;;;-4.64;100.00;99384.25;6159605;28;20202;-58
2024/01/31 02:01:42;;;;;;;30.60;18.73;;;;;;;-4.53;100.00;99394.78;6156285;28;20827;-57
2024/01/31 02:04:45;;;;;;;33.57;19.23;;;;;;;-4.59;100.00;99395.16;6160946;28;20610;-59
2024/01/31 02:07:48;;;;;;;33.73;19.80;;;;;;;-4.56;100.00;99389.78;6164847;28;20202;-58
2024/01/31 02:10:50;;;;;;;32.97;20.77;;;;;;;-4.41;100.00;99386.13;6155542;28;20198;-58
2024/01/31 02:13:52;;;;;;;33.53;20.03;;;;;;;-4.41;100.00;99386.13;6160411;28;20732;-58
2024/01/31 02:16:57;;;;;;;31.83;18.97;;;;;;;-4.39;100.00;99391.22;6158652;28;20793;-59
2024/01/31 02:19:59;;;;;;;32.83;18.60;;;;;;;-4.41;100.00;99395.69;6159753;28;20698;-57
2024/01/31 02:23:02;;;;;;;31.87;19.73;;;;;;;-4.33;100.00;99388.22;6153092;28;20277;-59
2024/01/31 02:26:04;;;;;;;34.33;20.33;;;;;;;-4.37;100.00;99386.75;6154512;28;20198;-53
2024/01/31 02:29:06;;;;;;;32.60;20.80;;;;;;;-4.33;100.00;99392.59;6157293;28;20226;-56
2024/01/31 02:32:08;;;;;;;33.70;20.33;;;;;;;-3.95;100.00;99390.72;6157223;28;20199;-57
2024/01/31 02:35:10;;;;;;;33.30;19.63;;;;;;;-4.21;100.00;99391.72;6153613;28;20200;-58
2024/01/31 02:38:12;;;;;;;30.53;18.77;;;;;;;-4.30;100.00;99379.34;6160027;28;20237;-56
2024/01/31 02:41:14;;;;;;;35.30;20.47;;;;;;;-4.30;100.00;99392.34;6158990;28;20198;-57
2024/01/31 02:44:16;;;;;;;33.47;19.97;;;;;;;-4.40;100.00;99371.34;6165855;28;20674;-56
2024/01/31 02:47:18;;;;;;;36.40;21.10;;;;;;;-4.27;100.00;99386.94;6158828;28;20886;-58
2024/01/31 02:50:21;;;;;;;33.33;19.30;;;;;;;-4.24;100.00;99382.34;6163848;28;20588;-58
2024/01/31 02:53:23;;;;;;;29.70;18.30;;;;;;;-4.20;100.00;99380.38;6149982;28;20203;-58
2024/01/31 02:56:25;;;;;;;31.03;18.97;;;;;;;-4.17;100.00;99388.81;6158149;28;20204;-56
2024/01/31 02:59:27;;;;;;;32.47;19.43;;;;;;;-4.11;100.00;99389.31;6164400;28;20726;-56
2024/01/31 03:02:30;;;;;;;32.03;19.23;;;;;;;-4.12;100.00;99388.50;6158332;28;20665;-58
2024/01/31 03:05:32;;;;;;;28.73;17.70;;;;;;;-4.11;100.00;99384.13;6160670;28;20198;-56
2024/01/31 03:08:34;;;;;;;30.60;18.73;;;;;;;-4.08;100.00;99382.13;6162440;28;20278;-58
2024/01/31 03:11:36;;;;;;;33.60;18.97;;;;;;;-4.00;100.00;99382.41;6163987;28;20201;-58
2024/01/31 03:14:38;;;;;;;29.27;18.53;;;;;;;-4.02;100.00;99391.28;6160762;28;20825;-58
2024/01/31 03:17:41;;;;;;;28.67;17.60;;;;;;;-3.96;100.00;99390.84;6155732;28;20199;-58
2024/01/31 03:20:43;;;;;;;34.57;18.57;;;;;;;-3.97;100.00;99387.41;6158493;28;20284;-56
2024/01/31 03:23:45;;;;;;;33.07;19.30;;;;;;;-3.94;100.00;99392.41;6155819;28;20205;-57
2024/01/31 03:26:47;;;;;;;30.43;18.00;;;;;;;-3.90;100.00;99396.44;6158012;28;20199;-58
2024/01/31 03:29:50;;;;;;;31.80;18.77;;;;;;;-3.87;100.00;99391.97;6157447;28;20587;-57
2024/01/31 03:32:53;;;;;;;32.90;18.03;;;;;;;-3.86;100.00;99391.84;6159409;28;20206;-56
2024/01/31 03:35:55;;;;;;;34.33;19.33;;;;;;;-3.77;100.00;99391.22;6150822;28;20206;-56
2024/01/31 03:38:58;;;;;;;30.43;19.60;;;;;;;-3.77;100.00;99395.59;6158177;28;20194;-57
2024/01/31 03:42:01;;;;;;;32.67;19.07;;;;;;;-3.76;100.00;99386.84;6162750;28;20203;-58
2024/01/31 03:45:04;;;;;;;33.03;19.03;;;;;;;-3.72;100.00;99378.69;6161531;28;20670;-57
2024/01/31 03:48:07;;;;;;;32.10;19.40;;;;;;;-3.49;100.00;99387.47;6170968;28;20205;-56
2024/01/31 03:51:19;;;;;;;30.50;18.30;;;;;;;-3.57;100.00;99395.00;6157883;28;20320;-56
2024/01/31 03:54:21;;;;;;;32.67;19.50;;;;;;;-3.62;100.00;99381.47;6166285;28;20781;-57
2024/01/31 03:57:23;;;;;;;31.53;19.07;;;;;;;-3.55;100.00;99369.66;6157605;28;20650;-59
2024/01/31 04:00:26;;;;;;;28.03;18.80;;;;;;;-3.50;100.00;99388.38;6163941;28;20194;-59
2024/01/31 04:03:28;;;;;;;31.97;19.63;;;;;;;-3.49;100.00;99378.84;6170173;28;20198;-57
2024/01/31 04:06:30;;;;;;;31.37;18.83;;;;;;;-3.15;100.00;99387.63;6150139;28;20198;-58
2024/01/31 04:09:32;;;;;;;28.37;18.10;;;;;;;-3.23;100.00;99382.97;6161869;28;20263;-58
2024/01/31 04:12:34;;;;;;;27.37;18.53;;;;;;;-3.26;100.00;99384.97;6165603;28;20680;-56
2024/01/31 04:15:36;;;;;;;26.43;17.47;;;;;;;-3.37;100.00;99389.19;6165799;28;20945;-55
2024/01/31 04:18:38;;;;;;;29.13;18.30;;;;;;;-3.40;100.00;99386.81;6165333;28;20205;-56
2024/01/31 04:21:40;;;;;;;29.27;18.23;;;;;;;-3.32;100.00;99390.63;6164334;28;20189;-56
2024/01/31 04:24:43;;;;;;;29.57;18.77;;;;;;;-3.38;100.00;99387.53;6168781;28;20205;-56
2024/01/31 04:27:45;;;;;;;26.67;18.43;;;;;;;-3.47;100.00;99376.94;6159511;28;20714;-56
2024/01/31 04:30:47;;;;;;;25.20;17.83;;;;;;;-3.11;100.00;99399.47;6164847;28;20237;-56
2024/01/31 04:33:49;;;;;;;25.87;16.43;;;;;;;-3.12;100.00;99393.44;6166427;28;20413;-55
2024/01/31 04:36:52;;;;;;;29.07;17.73;;;;;;;-3.28;100.00;99392.06;6152413;28;20198;-56
2024/01/31 04:39:54;;;;;;;25.93;16.33;;;;;;;-3.40;100.00;99379.00;6156375;28;20202;-55
2024/01/31 04:42:56;;;;;;;28.73;17.53;;;;;;;-3.31;100.00;99402.69;6165232;28;20721;-54
2024/01/31 04:45:58;;;;;;;26.63;17.60;;;;;;;-3.32;100.00;99390.63;6157118;28;20204;-56
2024/01/31 04:49:00;;;;;;;28.33;18.23;;;;;;;-3.26;100.00;99388.38;6161009;28;20230;-56
2024/01/31 04:52:03;;;;;;;26.63;17.23;;;;;;;-3.12;100.00;99371.75;6167625;28;20673;-56
2024/01/31 04:55:05;;;;;;;25.17;17.23;;;;;;;-3.14;100.00;99387.50;6157653;28;20273;-56
2024/01/31 04:58:07;;;;;;;22.50;15.83;;;;;;;-3.28;100.00;99368.63;6161189;28;20202;-56
2024/01/31 05:01:09;;;;;;;31.53;17.73;;;;;;;-3.28;100.00;99394.66;6149267;28;20214;-57
2024/01/31 05:04:12;;;;;;;24.00;16.50;;;;;;;-3.27;100.00;99391.13;6163302;28;20659;-56
2024/01/31 05:07:14;;;;;;;23.90;15.80;;;;;;;-3.28;100.00;99394.66;6154918;28;20844;-56
2024/01/31 05:10:16;;;;;;;25.53;16.13;;;;;;;-3.25;100.00;99391.81;6159801;28;20697;-56
2024/01/31 05:13:19;;;;;;;24.70;16.37;;;;;;;-3.26;100.00;99383.19;6160097;28;20669;-55
2024/01/31 05:16:21;;;;;;;28.27;17.47;;;;;;;-3.16;100.00;99394.59;6163874;28;20213;-56
2024/01/31 05:19:23;;;;;;;25.40;16.80;;;;;;;-3.25;100.00;99397.03;6166173;28;20202;-57
2024/01/31 05:22:31;;;;;;;28.00;16.97;;;;;;;-3.24;100.00;99388.31;6166855;28;20206;-55
2024/01/31 05:25:33;;;;;;;23.80;16.57;;;;;;;-3.24;100.00;99401.34;6144617;28;20225;-56
2024/01/31 05:28:37;;;;;;;25.63;16.60;;;;;;;-3.41;100.00;99384.31;6164516;28;20649;-55
2024/01/31 05:31:39;;;;;;;30.43;16.80;;;;;;;-3.18;100.00;99393.06;6160927;28;20713;-55
2024/01/31 05:34:44;;;;;;;23.03;16.47;;;;;;;-3.24;100.00;99388.31;6162509;28;20704;-56
2024/01/31 05:37:46;;;;;;;28.00;16.50;;;;;;;-3.24;100.00;99401.34;6161680;28;20198;-57
2024/01/31 05:40:49;;;;;;;27.30;16.87;;;;;;;-3.28;100.00;99402.50;6162003;28;20763;-56
2024/01/31 05:43:51;;;;;;;27.73;18.73;;;;;;;-3.27;100.00;99396.31;6152941;28;20213;-57
2024/01/31 05:46:53;;;;;;;25.47;17.23;;;;;;;-3.24;100.00;99396.13;6160322;28;20201;-54
2024/01/31 05:49:55;;;;;;;27.93;16.63;;;;;;;-3.11;100.00;99412.50;6162047;28;20235;-57
2024/01/31 05:52:57;;;;;;;29.50;16.70;;;;;;;-3.23;100.00;99405.59;6160744;28;20201;-55
2024/01/31 05:55:59;;;;;;;26.97;18.20;;;;;;;-3.14;100.00;99399.72;6167475;28;20625;-57
2024/01/31 05:59:01;;;;;;;26.97;16.97;;;;;;;-3.25;100.00;99394.44;6164129;28;20221;-57
2024/01/31 06:02:04;;;;;;;27.20;17.23;;;;;;;-3.25;100.00;99404.84;6165156;28;20205;-57
2024/01/31 06:05:06;;;;;;;25.17;16.63;;;;;;;-3.15;100.00;99382.41;6157735;28;20197;-57
2024/01/31 06:08:08;;;;;;;27.33;16.23;;;;;;;-3.02;100.00;99398.78;6160854;28;20198;-57
2024/01/31 06:11:10;;;;;;;25.60;15.40;;;;;;;-2.91;100.00;99392.78;6158175;28;20210;-56
2024/01/31 06:14:12;;;;;;;22.90;15.50;;;;;;;-3.20;100.00;99392.31;6157991;28;21139;-57
2024/01/31 06:17:16;;;;;;;24.10;16.30;;;;;;;-3.32;100.00;99401.88;6159645;28;20648;-57
2024/01/31 06:20:21;;;;;;;26.17;17.00;;;;;;;-3.30;100.00;99413.03;6162947;28;20337;-56
2024/01/31 06:23:25;;;;;;;25.33;16.13;;;;;;;-3.31;100.00;99413.94;6162336;28;20195;-58
2024/01/31 06:26:28;;;;;;;25.00;15.87;;;;;;;-3.35;100.00;99415.13;6160471;28;20280;-57
2024/01/31 06:29:30;;;;;;;27.07;16.97;;;;;;;-3.20;100.00;99416.63;6142001;28;20210;-56
2024/01/31 06:32:34;;;;;;;23.40;15.77;;;;;;;-2.82;100.00;99409.53;6156939;28;20337;-57
2024/01/31 06:35:40;;;;;;;26.07;16.67;;;;;;;-3.11;100.00;99417.72;6145506;28;20210;-57
2024/01/31 06:38:42;;;;;;;24.87;16.03;;;;;;;-2.86;100.00;99403.69;6166804;28;20206;-55
2024/01/31 06:41:44;;;;;;;26.40;15.90;;;;;;;-3.01;100.00;99410.88;6161411;28;20194;-56
2024/01/31 06:44:46;;;;;;;23.67;14.90;;;;;;;-3.14;100.00;99402.31;6160520;28;20194;-57
2024/01/31 06:47:48;;;;;;;24.80;16.33;;;;;;;-3.15;100.00;99411.91;6164782;28;20606;-57
2024/01/31 06:50:50;;;;;;;25.57;16.57;;;;;;;-3.15;100.00;99409.31;6160865;28;20241;-58
2024/01/31 06:53:53;;;;;;;22.13;15.37;;;;;;;-3.17;100.00;99418.16;6164662;28;20650;-57
2024/01/31 06:56:55;;;;;;;23.33;15.77;;;;;;;-3.20;100.00;99416.63;6161526;28;20198;-58
2024/01/31 06:59:57;;;;;;;24.60;16.63;;;;;;;-3.15;100.00;99429.34;6160692;28;20570;-57
2024/01/31 07:02:59;;;;;;;21.47;16.20;;;;;;;-3.15;100.00;99434.53;6154286;28;20198;-57
2024/01/31 07:06:01;;;;;;;30.80;17.77;;;;;;;-3.15;100.00;99427.56;6162384;28;20324;-57
2024/01/31 07:09:03;;;;;;;32.97;17.53;;;;;;;-3.11;100.00;99425.53;6165024;28;20190;-56
2024/01/31 07:12:05;;;;;;;26.37;17.97;;;;;;;-2.67;100.00;99430.06;6157872;28;20210;-57
2024/01/31 07:15:08;;;;;;;26.77;17.03;;;;;;;-2.58;100.00;99431.16;6163600;28;20641;-57
2024/01/31 07:18:10;;;;;;;27.30;16.83;;;;;;;-2.56;100.00;99436.25;6156044;28;20549;-56
2024/01/31 07:21:23;;;;;;;27.07;17.67;;;;;;;-2.70;100.00;99426.88;6157131;28;20203;-57
2024/01/31 07:24:25;;;;;;;27.60;18.37;;;;;;;-2.76;100.00;99440.34;6157662;28;20201;-57
2024/01/31 07:27:31;;;;;;;27.37;17.73;;;;;;;-2.72;100.00;99434.81;6162086;28;20206;-57
2024/01/31 07:30:33;;;;;;;26.40;17.73;;;;;;;-2.66;100.00;99436.13;6152488;28;20210;-56
2024/01/31 07:33:35;;;;;;;26.60;17.57;;;;;;;-2.63;100.00;99441.94;6157934;28;20707;-55
2024/01/31 07:36:37;;;;;;;23.77;15.90;;;;;;;-2.58;100.00;99435.56;6158875;28;20274;-57
2024/01/31 07:39:39;;;;;;;23.53;16.03;;;;;;;-2.49;100.00;99447.91;6157112;28;20191;-55
2024/01/31 07:42:42;;;;;;;25.30;17.83;;;;;;;-2.41;100.00;99437.75;6157518;28;20201;-56
2024/01/31 07:45:44;;;;;;;28.27;18.93;;;;;;;-2.37;100.00;99437.38;6152387;28;20199;-57
2024/01/31 07:48:46;;;;;;;25.27;16.93;;;;;;;-2.37;100.00;99432.16;6160794;28;20698;-58
2024/01/31 07:51:52;;;;;;;31.33;18.40;;;;;;;-2.25;100.00;99442.63;6148576;28;20214;-57
2024/01/31 07:54:55;;;;;;;24.67;17.23;;;;;;;-2.17;100.00;99442.84;6157014;28;20753;-57
2024/01/31 07:57:57;;;;;;;27.33;18.97;;;;;;;-2.24;100.00;99426.84;6154332;28;20205;-57
2024/01/31 08:00:59;;;;;;;28.53;18.70;;;;;;;-1.68;100.00;99442.47;6152664;28;20686;-57
2024/01/31 08:04:02;;;;;;;28.60;18.40;;;;;;;-1.68;100.00;99444.28;6161852;28;20692;-57
2024/01/31 08:07:04;;;;;;;23.03;17.50;;;;;;;-1.79;100.00;99450.34;6158574;28;20202;-57
2024/01/31 08:10:09;;;;;;;28.73;19.33;;;;;;;-1.75;100.00;99440.50;6155338;28;20222;-57
2024/01/31 08:13:12;;;;;;;29.40;19.07;;;;;;;-1.61;100.00;99443.69;6163574;28;20583;-56
2024/01/31 08:16:15;;;;;;;30.50;18.33;;;;;;;-1.61;100.00;99435.84;6160858;28;20704;-57
2024/01/31 08:19:17;;;;;;;24.33;16.70;;;;;;;-1.61;100.00;99419.34;6164757;28;20548;-58
2024/01/31 08:22:20;;;;;;;27.90;18.37;;;;;;;-1.45;100.00;99445.91;6160207;28;20179;-55
2024/01/31 08:25:23;;;;;;;26.73;18.60;;;;;;;-1.45;100.00;99438.06;6158873;28;20198;-56
2024/01/31 08:28:25;;;;;;;26.70;17.10;;;;;;;-1.45;100.00;99414.53;6150101;28;20600;-58
2024/01/31 08:31:27;;;;;;;27.03;17.63;;;;;;;-1.20;100.00;99436.09;6163187;28;20577;-58
2024/01/31 08:34:29;;;;;;;25.23;17.53;;;;;;;-1.11;100.00;99440.59;6166901;28;20230;-58
2024/01/31 08:37:34;;;;;;;25.97;18.50;;;;;;;-1.06;100.00;99434.03;6156278;28;20199;-55
2024/01/31 08:40:36;;;;;;;27.13;18.20;;;;;;;-0.94;100.00;99437.41;6153901;28;20198;-56
2024/01/31 08:43:38;;;;;;;22.17;16.37;;;;;;;-0.95;100.00;99430.53;6164170;28;20201;-57
2024/01/31 08:46:41;;;;;;;23.20;16.37;;;;;;;-0.82;100.00;99446.06;6168430;28;20198;-58
2024/01/31 08:50:03;;;;;;;25.43;17.33;;;;;;;-0.70;100.00;99444.22;6164913;28;20233;-58
2024/01/31 08:53:05;;;;;;;22.27;16.00;;;;;;;-0.66;100.00;99441.22;6164494;28;20642;-56
2024/01/31 08:56:09;;;;;;;23.53;16.60;;;;;;;-0.59;100.00;99449.38;6169919;28;20198;-56
2024/01/31 08:59:12;;;;;;;25.43;17.37;;;;;;;-0.47;100.00;99450.19;6164777;28;20310;-57
2024/01/31 09:02:14;;;;;;;26.80;19.17;;;;;;;-0.38;100.00;99455.47;6162474;28;20286;-57
2024/01/31 09:05:16;;;;;;;26.73;18.53;;;;;;;-0.39;100.00;99447.75;6156255;28;20198;-55
2024/01/31 09:08:19;;;;;;;32.97;19.77;;;;;;;-0.42;100.00;99451.44;6159882;28;20206;-57
2024/01/31 09:11:21;;;;;;;25.27;19.00;;;;;;;-0.38;100.00;99445.00;6153587;28;20225;-57
2024/01/31 09:14:23;;;;;;;29.33;19.90;;;;;;;-0.32;100.00;99446.28;6162493;28;20206;-56
2024/01/31 09:17:25;;;;;;;27.20;19.30;;;;;;;-0.20;100.00;99447.84;6159589;28;20568;-58
2024/01/31 09:20:27;;;;;;;28.20;18.77;;;;;;;-0.10;100.00;99446.13;6157673;28;20187;-57
2024/01/31 09:23:29;;;;;;;26.80;18.57;;;;;;;0.17;100.00;99447.34;6167866;28;20209;-57
2024/01/31 09:26:32;;;;;;;27.37;18.70;;;;;;;0.28;100.00;99451.66;6156092;28;20202;-57
2024/01/31 09:29:34;;;;;;;27.33;18.33;;;;;;;0.38;100.00;99455.13;6161007;28;20739;-57
2024/01/31 09:32:36;;;;;;;28.50;18.50;;;;;;;0.54;100.00;99457.25;6149782;28;20754;-57
2024/01/31 09:35:39;;;;;;;29.03;18.93;;;;;;;0.75;100.00;99461.44;6158045;28;20515;-58
2024/01/31 09:38:42;;;;;;;26.53;19.77;;;;;;;0.98;100.00;99461.19;6150627;28;20580;-57
2024/01/31 09:41:44;;;;;;;30.03;21.37;;;;;;;1.16;100.00;99462.19;6162792;28;20646;-56
2024/01/31 09:44:46;;;;;;;26.60;18.53;;;;;;;1.35;100.00;99461.34;6167035;28;20648;-57
2024/01/31 09:47:49;;;;;;;29.40;19.17;;;;;;;1.48;100.00;99445.31;6153814;28;20202;-57
2024/01/31 09:50:51;;;;;;;27.57;19.70;;;;;;;1.75;100.00;99450.66;6163808;28;20272;-56
2024/01/31 09:53:57;;;;;;;26.40;19.67;;;;;;;1.93;100.00;99447.31;6167118;28;20561;-57
2024/01/31 09:57:02;;;;;;;26.00;18.63;;;;;;;2.17;100.00;99438.88;6160541;28;20200;-57
2024/01/31 10:00:05;;;;;;;28.33;20.53;;;;;;;2.37;100.00;99431.78;6167246;28;20726;-56
2024/01/31 10:03:13;;;;;;;30.23;21.07;;;;;;;2.66;100.00;99428.94;6158652;28;20239;-56
2024/01/31 10:06:15;;;;;;;30.57;21.00;;;;;;;2.80;100.00;99431.91;6164971;28;20193;-57
2024/01/31 10:09:17;;;;;;;31.23;20.60;;;;;;;2.85;100.00;99415.66;6156371;28;20194;-56
2024/01/31 10:12:20;;;;;;;26.03;19.63;;;;;;;2.78;100.00;99423.34;6164213;28;20240;-56
2024/01/31 10:15:23;;;;;;;28.00;20.43;;;;;;;2.70;100.00;99412.72;6162935;28;20680;-57
2024/01/31 10:18:28;;;;;;;28.37;19.77;;;;;;;2.79;100.00;99408.38;6158099;28;20548;-56
2024/01/31 10:21:32;;;;;;;26.57;19.27;;;;;;;2.96;100.00;99404.09;6163994;28;20201;-56
2024/01/31 10:24:34;;;;;;;26.87;18.50;;;;;;;3.08;100.00;99384.47;6162796;28;20215;-55
2024/01/31 10:27:37;;;;;;;26.67;17.80;;;;;;;3.28;99.44;99387.75;6165473;28;20198;-56
2024/01/31 10:30:40;;;;;;;26.97;17.33;;;;;;;3.32;99.08;99374.13;6155271;28;20325;-55
2024/01/31 10:33:43;;;;;;;25.00;18.10;;;;;;;3.60;99.02;99379.25;6158690;28;20201;-54
2024/01/31 10:36:46;;;;;;;26.37;17.20;;;;;;;3.65;96.99;99373.53;6154046;28;20328;-54
2024/01/31 10:40:09;;;;;;;23.80;17.30;;;;;;;3.78;94.59;99374.72;6162143;28;20242;-53
2024/01/31 10:43:13;;;;;;;25.13;17.07;;;;;;;3.84;95.36;99371.50;6166509;28;20341;-56
2024/01/31 10:46:15;;;;;;;22.50;16.37;;;;;;;4.03;95.16;99372.22;6157495;28;20201;-56
2024/01/31 10:49:17;;;;;;;21.67;16.00;;;;;;;4.25;93.11;99365.56;6164086;28;20723;-54
2024/01/31 10:52:25;;;;;;;25.20;18.13;;;;;;;4.56;84.77;99352.59;6154101;28;20211;-54
2024/01/31 10:55:28;;;;;;;24.93;18.37;;;;;;;4.89;83.56;99366.69;6160464;28;20203;-54
2024/01/31 10:58:30;;;;;;;21.00;15.20;;;;;;;5.08;87.80;99363.72;6162834;28;20327;-56
2024/01/31 11:01:33;;;;;;;26.47;18.67;;;;;;;5.26;82.34;99360.91;6159408;28;20277;-55
2024/01/31 11:04:39;;;;;;;31.40;20.17;;;;;;;5.49;80.49;99361.06;6154281;28;20288;-56
2024/01/31 11:07:45;;;;;;;26.23;19.77;;;;;;;5.70;79.51;99358.69;6152672;28;20204;-56
2024/01/31 11:10:48;;;;;;;29.13;20.87;;;;;;;5.86;76.22;99363.13;6162346;28;20212;-54
2024/01/31 11:13:56;;;;;;;28.00;20.13;;;;;;;5.86;75.93;99364.91;6153092;28;20215;-55
2024/01/31 11:17:08;;;;;;;29.40;21.60;;;;;;;5.85;75.54;99360.63;6161819;28;20200;-56
2024/01/31 11:20:13;;;;;;;31.67;21.77;;;;;;;5.60;75.83;99336.91;6165499;28;20195;-56
2024/01/31 11:23:16;;;;;;;29.30;21.50;;;;;;;5.62;77.98;99342.88;6154574;28;20197;-57
2024/01/31 11:26:30;;;;;;;27.90;22.10;;;;;;;5.63;78.06;99348.97;6155098;28;20228;-57
2024/01/31 11:29:33;;;;;;;31.07;22.50;;;;;;;5.52;78.91;99351.97;6162826;28;20205;-57
2024/01/31 11:32:35;;;;;;;29.73;21.90;;;;;;;5.53;79.05;99343.03;6155832;28;20221;-57
2024/01/31 11:35:38;;;;;;;29.23;22.37;;;;;;;5.50;79.01;99340.72;6147408;28;20708;-56
2024/01/31 11:38:40;;;;;;;33.00;23.57;;;;;;;5.63;78.46;99335.75;6156634;28;20594;-55
2024/01/31 11:41:42;;;;;;;31.67;22.43;;;;;;;5.72;77.45;99326.00;6157014;28;20202;-57
2024/01/31 11:44:45;;;;;;;28.27;22.37;;;;;;;5.68;76.32;99317.56;6152916;28;20202;-57
2024/01/31 11:47:47;;;;;;;29.57;22.33;;;;;;;5.57;78.23;99333.78;6158876;28;20689;-56
2024/01/31 11:50:49;;;;;;;27.63;21.87;;;;;;;5.47;77.65;99325.19;6162516;28;20235;-58
2024/01/31 11:53:51;;;;;;;38.23;22.97;;;;;;;5.45;78.08;99317.44;6160140;28;20243;-57
2024/01/31 11:56:54;;;;;;;25.30;21.07;;;;;;;5.38;78.28;99314.66;6157102;28;20252;-57
2024/01/31 11:59:56;;;;;;;30.03;21.13;;;;;;;5.40;78.36;99312.66;6156937;28;20196;-57
2024/01/31 12:02:58;;;;;;;37.17;21.37;;;;;;;5.39;77.13;99310.19;6159809;28;20300;-56
2024/01/31 12:06:03;;;;;;;29.23;21.50;;;;;;;5.38;76.75;99311.19;6165675;28;20205;-57
2024/01/31 12:09:05;;;;;;;30.33;21.53;;;;;;;5.51;76.29;99300.09;6166837;28;20206;-57
2024/01/31 12:12:07;;;;;;;28.17;21.13;;;;;;;5.46;76.51;99316.44;6167053;28;20298;-56
2024/01/31 12:15:13;;;;;;;26.37;19.60;;;;;;;5.59;76.43;99305.34;6164157;28;20205;-57
2024/01/31 12:18:15;;;;;;;26.90;21.47;;;;;;;5.64;74.68;99301.19;6155630;28;20215;-56
2024/01/31 12:21:19;;;;;;;28.73;21.63;;;;;;;5.59;75.86;99306.19;6162402;28;20617;-57
2024/01/31 12:24:21;;;;;;;30.67;22.43;;;;;;;5.70;76.47;99297.88;6163860;28;20199;-57
2024/01/31 12:27:23;;;;;;;28.97;21.77;;;;;;;5.61;75.09;99277.75;6158993;28;20208;-56
2024/01/31 12:30:25;;;;;;;32.83;22.40;;;;;;;5.68;76.01;99281.38;6164676;28;20240;-57
2024/01/31 12:33:28;;;;;;;28.43;20.63;;;;;;;5.77;75.58;99286.63;6165687;28;20697;-58
2024/01/31 12:36:30;;;;;;;27.97;20.20;;;;;;;5.87;76.15;99290.72;6161732;28;20661;-57
2024/01/31 12:39:35;;;;;;;27.30;20.13;;;;;;;5.91;75.40;99285.88;6167303;28;20245;-56
2024/01/31 12:42:37;;;;;;;26.20;20.53;;;;;;;5.76;74.02;99269.91;6162128;28;20785;-56
2024/01/31 12:45:40;;;;;;;27.03;20.70;;;;;;;5.69;75.76;99266.31;6168589;28;20763;-58
2024/01/31 12:48:42;;;;;;;24.70;19.37;;;;;;;5.69;76.23;99279.53;6164760;28;20248;-58
2024/01/31 12:51:45;;;;;;;27.53;20.17;;;;;;;5.69;75.25;99279.53;6165656;28;20302;-57
2024/01/31 12:54:47;;;;;;;28.83;20.77;;;;;;;5.66;75.64;99279.88;6160727;28;20602;-57
2024/01/31 12:57:49;;;;;;;29.27;20.13;;;;;;;5.54;75.46;99279.44;6163244;28;20204;-57
2024/01/31 13:00:51;;;;;;;24.70;19.20;;;;;;;5.48;76.20;99279.28;6159750;28;20209;-57
2024/01/31 13:03:53;;;;;;;27.30;20.13;;;;;;;5.41;76.38;99277.31;6159080;28;20199;-58
2024/01/31 13:06:56;;;;;;;30.53;21.90;;;;;;;5.38;76.58;99279.47;6159118;28;20748;-58
2024/01/31 13:09:59;;;;;;;25.33;20.00;;;;;;;5.25;76.78;99271.25;6163538;28;20284;-58
2024/01/31 13:13:01;;;;;;;27.20;20.03;;;;;;;5.15;76.64;99277.53;6165938;28;20213;-57
2024/01/31 13:16:04;;;;;;;31.30;20.20;;;;;;;5.16;78.14;99276.53;6158398;28;20207;-57
2024/01/31 13:19:07;;;;;;;26.07;19.93;;;;;;;5.10;78.99;99279.84;6164682;28;20246;-57
2024/01/31 13:22:09;;;;;;;23.90;18.53;;;;;;;5.10;79.10;99279.03;6168604;28;20185;-57
2024/01/31 13:25:12;;;;;;;28.20;19.57;;;;;;;5.14;77.11;99265.31;6155566;28;20230;-58
2024/01/31 13:28:16;;;;;;;29.87;19.30;;;;;;;5.13;78.01;99273.44;6164901;28;20585;-57
2024/01/31 13:31:19;;;;;;;26.90;19.73;;;;;;;5.08;78.42;99273.94;6157174;28;20221;-57
2024/01/31 13:34:21;;;;;;;31.30;20.97;;;;;;;5.23;77.63;99278.53;6161361;28;20288;-58
2024/01/31 13:37:24;;;;;;;28.30;19.67;;;;;;;5.24;77.39;99267.78;6166310;28;20214;-58
2024/01/31 13:40:26;;;;;;;28.40;20.13;;;;;;;5.28;77.70;99279.66;6163752;28;20209;-58
2024/01/31 13:43:28;;;;;;;28.33;19.73;;;;;;;5.36;77.86;99273.53;6161082;28;20850;-58
2024/01/31 13:46:30;;;;;;;25.93;18.87;;;;;;;5.42;77.61;99278.97;6157483;28;20195;-58
2024/01/31 13:49:33;;;;;;;27.40;19.33;;;;;;;5.43;77.19;99269.22;6160805;28;20232;-56
2024/01/31 13:52:36;;;;;;;29.37;19.60;;;;;;;5.41;77.89;99271.19;6153707;28;20357;-58
2024/01/31 13:55:38;;;;;;;28.57;19.47;;;;;;;5.38;77.96;99267.09;6162813;28;20201;-58
2024/01/31 13:58:40;;;;;;;27.50;19.97;;;;;;;5.30;78.85;99263.63;6155277;28;20200;-57